Latest Weather Observations for Holsworthy

IDN60901

Issued at 9:21 pm EDT Thursday 29 January 2015 (issued every 10 minutes, with the page automatically refreshed every 10 minutes)

About weather observations | Map of Sydney area stations | Latest observations for Sydney area | Other Formats
Station Details ID: 066161 Name: HOLSWORTHY AERODROME AWS Lat: -33.99 Lon: 150.95 Height: 68.16 m
Data from the previous 72 hours. | See also: Recent months at Holsworthy
Date/Time
EDT
Tmp

°C
App
Tmp
°C
Dew
Point
°C
Rel
Hum
%
Delta-T

°C
Wind Press
QNH
hPa
Press
MSL
hPa
Rain
since
9 am
mm
Dir
 
Spd
km/h
Gust
km/h
Spd
kts
Gust
kts
29/09:00pm 18.0 15.0 10.6 62 4.0 SSW 17 35 9 19 1011.8 1011.5 0.0
29/08:30pm 18.4 16.3 11.2 63 3.9 SSW 13 19 7 10 1011.6 1011.3 0.0
29/08:00pm 18.7 15.5 11.3 62 4.1 S 19 28 10 15 1011.2 1010.9 0.0
29/07:30pm 19.4 15.9 10.9 58 4.6 S 20 39 11 21 1010.9 1010.6 0.0
29/07:00pm 20.0 15.0 11.0 56 4.9 SSE 28 39 15 21 1010.6 1010.3 0.0
29/06:30pm 20.6 16.0 11.0 54 5.3 S 26 41 14 22 1010.3 1010.0 0.0
29/06:00pm 21.3 16.3 10.8 51 5.8 SSE 28 37 15 20 1010.0 1009.7 0.0
29/05:30pm 21.3 16.6 10.5 50 5.9 SSE 26 35 14 19 1010.1 1009.8 0.0
29/05:00pm 21.5 16.6 11.2 52 5.7 SSE 28 43 15 23 1010.2 1009.9 0.0
29/04:30pm 23.0 19.3 9.4 42 7.4 SSE 19 28 10 15 1010.1 1009.8 0.0
29/04:00pm 23.0 19.8 12.0 50 6.2 SSE 20 30 11 16 1010.4 1010.1 0.0
29/03:30pm 23.5 19.4 8.8 39 7.9 SW 20 28 11 15 1010.6 1010.3 0.0
29/03:00pm 22.5 20.0 10.9 48 6.4 S 15 24 8 13 1011.0 1010.7 0.0
29/02:30pm 23.2 20.1 10.3 44 7.1 S 17 24 9 13 1011.2 1010.9 0.0
29/02:00pm 23.3 18.6 9.3 41 7.6 S 24 39 13 21 1011.5 1011.2 0.0
29/01:30pm 22.9 18.1 9.0 41 7.5 SSW 24 32 13 17 1011.6 1011.3 0.0
29/01:00pm 21.8 17.9 9.3 45 6.7 SSW 20 32 11 17 1012.0 1011.7 0.0
29/12:30pm 22.8 19.5 10.9 47 6.6 SSW 19 30 10 16 1012.1 1011.8 0.0
29/12:00pm 21.3 17.3 8.9 45 6.6 SW 20 35 11 19 1012.4 1012.1 0.0
29/11:30am 21.9 17.5 9.1 44 6.9 SW 22 33 12 18 1012.5 1012.2 0.0
29/11:00am 21.2 16.7 10.1 49 6.0 SW 24 39 13 21 1012.7 1012.4 0.0
29/10:30am 20.4 16.2 9.6 50 5.8 SW 22 32 12 17 1012.9 1012.6 0.0
29/10:00am 19.8 16.2 9.7 52 5.4 SW 19 35 10 19 1013.1 1012.8 0.0
29/09:30am 19.2 15.8 9.1 52 5.3 SW 17 28 9 15 1013.2 1012.9 0.0
29/09:00am 18.4 16.1 10.3 59 4.3 WSW 13 19 7 10 1013.2 1012.9 3.2
29/08:30am 17.4 14.1 9.6 60 4.1 SW 17 26 9 14 1013.2 1012.9 3.2
29/08:00am 16.6 13.5 10.2 66 3.4 SW 17 24 9 13 1013.1 1012.8 3.2
29/07:30am 16.0 13.8 10.7 71 2.8 SW 13 20 7 11 1012.9 1012.6 3.2
29/07:00am 15.0 13.5 10.4 74 2.4 WSW 9 15 5 8 1012.8 1012.5 3.2
29/06:30am 14.4 12.9 10.4 77 2.1 SW 9 17 5 9 1012.5 1012.2 3.2
29/05:30am 14.6 12.5 11.2 80 1.8 SW 13 17 7 9 1011.9 1011.6 3.2
29/05:00am 13.7 11.7 11.4 86 1.2 SW 13 20 7 11 1011.8 1011.5 3.2
29/04:30am 13.2 12.5 11.4 89 1.0 WSW 6 9 3 5 1011.9 1011.6 3.2
29/04:00am 13.4 12.2 11.6 89 1.0 WSW 9 11 5 6 1012.3 1012.0 3.2
29/03:30am 13.4 12.5 11.5 88 1.0 WSW 7 9 4 5 1012.4 1012.1 3.2
29/03:00am 13.7 12.5 11.6 87 1.1 WSW 9 11 5 6 1012.6 1012.3 3.2
29/02:30am 13.9 12.7 11.6 86 1.2 WSW 9 11 5 6 1012.6 1012.3 3.2
29/02:00am 14.3 12.7 11.6 84 1.5 SW 11 15 6 8 1013.1 1012.8 3.2
29/01:30am 14.7 13.1 11.7 82 1.6 SW 11 13 6 7 1013.5 1013.2 3.2
29/01:00am 14.7 12.9 12.0 84 1.5 SW 13 17 7 9 1013.5 1013.2 3.2
29/12:30am 14.5 13.4 12.0 85 1.4 SW 9 13 5 7 1013.6 1013.3 3.2
29/12:00am 14.7 13.7 12.2 85 1.4 WSW 9 13 5 7 1013.7 1013.4 3.2
 
Date/Time
EDT
Tmp

°C
App
Tmp
°C
Dew
Point
°C
Rel
Hum
%
Delta-T

°C
Wind Press
QNH
hPa
Press
MSL
hPa
Rain
since
9 am
mm
Dir
 
Spd
km/h
Gust
km/h
Spd
kts
Gust
kts
28/11:30pm 15.2 13.8 12.1 82 1.7 SW 11 17 6 9 1013.8 1013.5 3.2
28/11:00pm 15.5 14.5 12.3 81 1.8 SW 9 13 5 7 1013.9 1013.6 3.2
28/10:30pm 15.7 14.3 12.3 80 1.9 SW 11 15 6 8 1014.4 1014.0 3.2
28/10:00pm 16.1 15.5 12.3 78 2.1 WSW 7 11 4 6 1014.2 1013.9 3.2
28/09:30pm 16.6 15.7 12.6 77 2.2 WSW 9 15 5 8 1014.2 1013.9 3.2
28/09:00pm 17.4 16.2 12.7 74 2.6 SW 11 15 6 8 1014.1 1013.8 3.2
28/08:30pm 18.3 16.7 12.7 70 3.1 SSW 13 22 7 12 1014.0 1013.7 3.2
28/08:00pm 18.7 17.1 12.7 68 3.4 SSW 13 17 7 9 1013.9 1013.6 3.2
28/07:30pm 19.3 17.5 13.2 68 3.5 SSW 15 26 8 14 1013.7 1013.4 3.2
28/07:00pm 20.0 18.2 13.2 65 3.9 S 15 28 8 15 1013.4 1013.1 3.2
28/06:30pm 19.9 18.2 13.6 67 3.6 S 15 26 8 14 1013.4 1013.1 3.2
28/06:00pm 19.5 18.0 14.3 72 3.0 S 15 26 8 14 1013.4 1013.1 3.2
28/05:30pm 19.7 16.8 14.1 70 3.2 S 22 33 12 18 1013.4 1013.1 3.2
28/05:00pm 19.2 18.7 15.9 81 2.0 SSE 13 22 7 12 1013.3 1013.0 3.2
28/04:30pm 19.0 16.9 14.7 76 2.5 S 19 26 10 14 1013.4 1013.1 3.2
28/04:00pm 20.9 18.5 14.5 67 3.8 SSE 20 32 11 17 1013.4 1013.1 3.2
28/03:30pm 21.1 19.0 14.7 67 3.8 S 19 30 10 16 1013.3 1013.0 3.2
28/03:00pm 20.5 20.1 16.1 76 2.6 S 13 17 7 9 1013.6 1013.3 3.2
28/02:30pm 19.3 17.3 15.4 78 2.3 SSE 20 30 11 16 1013.9 1013.6 3.2
28/02:18pm 19.0 15.7 14.1 73 2.8 S 24 43 13 23 1014.1 1013.8 3.2
28/02:00pm 19.7 19.3 16.2 80 2.1 SSW 13 20 7 11 1014.0 1013.7 3.2
28/01:30pm 19.8 19.9 16.4 81 2.0 S 11 28 6 15 1014.6 1014.2 2.2
28/01:00pm 18.8 18.6 15.7 82 1.8 S 11 20 6 11 1014.4 1014.0 2.0
28/12:30pm 18.4 19.9 16.6 89 1.1 NNE 4 9 2 5 1014.6 1014.2 2.0
28/12:00pm 17.6 17.8 15.8 89 1.1 SSE 9 13 5 7 1014.6 1014.2 2.0
28/11:30am 17.3 17.1 15.8 91 0.9 S 11 20 6 11 1014.9 1014.5 1.8
28/11:00am 17.6 18.0 16.3 92 0.8 SSW 9 13 5 7 1014.6 1014.2 1.4
28/10:30am 17.7 18.4 17.1 96 0.4 SW 9 15 5 8 1014.5 1014.1 1.4
28/10:00am 17.2 18.1 16.6 96 0.4 SSW 7 9 4 5 1014.4 1014.0 1.2
28/09:30am 17.1 18.0 16.5 96 0.4 SW 7 11 4 6 1014.2 1013.9 0.4
28/09:12am 17.0 17.1 16.4 96 0.4 SSE 11 15 6 8 1014.0 1013.7 0.2
28/09:08am 16.9 16.5 16.3 96 0.4 SSE 13 20 7 11 1014.0 1013.7 0.0
28/09:00am 16.7 16.3 16.1 96 0.4 S 13 22 7 12 1014.0 1013.7 55.2
28/08:51am 16.9 16.9 16.3 96 0.4 SW 11 15 6 8 1013.9 1013.6 53.8
28/08:34am 17.0 17.4 16.4 96 0.4 SSW 9 15 5 8 1013.7 1013.4 51.2
28/08:30am 17.0 17.4 16.4 96 0.4 S 9 13 5 7 1013.6 1013.3 50.2
28/08:27am 17.0 17.4 16.4 96 0.4 S 9 13 5 7 1013.5 1013.2 50.0
28/08:07am 16.9 16.5 16.3 96 0.4 S 13 17 7 9 1013.5 1013.2 47.4
28/08:05am 17.0 16.7 16.4 96 0.4 S 13 19 7 10 1013.5 1013.2 46.6
28/08:00am 16.9 16.5 16.1 95 0.5 S 13 20 7 11 1013.4 1013.1 46.0
28/07:30am 16.7 16.9 15.7 94 0.6 S 9 13 5 7 1012.8 1012.5 41.4
28/07:29am 16.6 16.7 15.6 94 0.6 S 9 13 5 7 1012.8 1012.5 41.2
28/07:00am 17.0 15.5 15.3 90 1.0 S 17 26 9 14 1012.4 1012.1 38.6
28/06:30am 16.8 17.3 15.5 92 0.8 SSW 7 15 4 8 1012.0 1011.7 38.6
28/06:00am 17.0 17.3 16.0 94 0.6 SW 9 11 5 6 1011.8 1011.5 38.4
28/05:30am 17.2 17.0 15.7 91 0.9 SW 11 15 6 8 1011.6 1011.3 38.4
28/05:00am 17.3 17.5 15.8 91 0.9 SSW 9 13 5 7 1011.6 1011.3 38.4
28/04:30am 17.4 16.8 15.7 90 1.0 S 13 15 7 8 1011.6 1011.3 38.4
28/04:00am 17.4 16.9 15.9 91 0.9 S 13 19 7 10 1011.5 1011.2 38.4
28/03:30am 17.2 17.1 16.1 93 0.7 SSW 11 19 6 10 1011.7 1011.4 38.4
28/03:00am 17.1 17.4 16.1 94 0.6 SW 9 13 5 7 1011.9 1011.6 38.4
28/02:30am 17.2 18.1 16.2 94 0.6 SSW 6 7 3 4 1012.1 1011.8 38.4
28/02:00am 17.3 17.3 16.3 94 0.6 S 11 15 6 8 1012.3 1012.0 38.4
28/01:30am 17.4 17.5 16.6 95 0.5 SSE 11 17 6 9 1012.7 1012.4 38.4
28/01:05am 17.6 16.8 17.0 96 0.4 SSE 17 24 9 13 1012.9 1012.6 38.2
28/01:00am 17.6 16.4 17.0 96 0.4 SE 19 28 10 15 1012.9 1012.6 38.0
28/12:34am 17.6 18.7 17.1 97 0.3 SW 7 11 4 6 1012.9 1012.6 36.0
28/12:30am 17.7 18.8 17.2 97 0.3 WSW 7 11 4 6 1012.9 1012.6 36.0
28/12:00am 17.7 18.4 17.1 96 0.4 SW 9 13 5 7 1012.9 1012.6 35.8
 
Date/Time
EDT
Tmp

°C
App
Tmp
°C
Dew
Point
°C
Rel
Hum
%
Delta-T

°C
Wind Press
QNH
hPa
Press
MSL
hPa
Rain
since
9 am
mm
Dir
 
Spd
km/h
Gust
km/h
Spd
kts
Gust
kts
27/11:32pm 17.7 18.4 17.1 96 0.4 SW 9 11 5 6 1013.3 1013.0 35.8
27/11:30pm 17.7 18.4 17.1 96 0.4 SSW 9 13 5 7 1013.3 1013.0 35.8
27/11:19pm 17.8 18.2 17.2 96 0.4 S 11 17 6 9 1013.3 1013.0 35.4
27/11:00pm 17.8 18.6 17.2 96 0.4 SSW 9 13 5 7 1013.2 1012.9 33.6
27/10:53pm 17.9 18.7 17.3 96 0.4 SSW 9 11 5 6 1013.1 1012.8 33.6
27/10:39pm 17.9 18.6 17.1 95 0.5 SSE 9 11 5 6 1013.3 1013.0 33.4
27/10:30pm 18.0 19.1 17.2 95 0.5 SE 7 9 4 5 1013.4 1013.1 33.4
27/10:00pm 17.9 18.6 17.1 95 0.5 SSE 9 11 5 6 1013.5 1013.2 33.4
27/09:30pm 17.9 17.9 17.1 95 0.5 ESE 13 20 7 11 1012.9 1012.6 33.2
27/09:11pm 18.1 18.9 17.3 95 0.5 SE 9 13 5 7 1012.9 1012.6 32.8
27/09:00pm 18.1 18.1 17.3 95 0.5 SSE 13 17 7 9 1013.0 1012.7 32.6
27/08:30pm 18.4 19.2 17.2 93 0.7 SE 9 13 5 7 1013.1 1012.8 30.4
27/08:00pm 18.8 19.7 17.6 93 0.7 S 9 11 5 6 1012.5 1012.2 30.0
27/07:30pm 18.9 20.2 17.6 92 0.8 SSW 7 9 4 5 1012.5 1012.2 30.0
27/07:00pm 19.1 21.4 17.8 92 0.8 NNE 2 11 1 6 1012.4 1012.1 30.0
27/06:30pm 19.1 20.2 17.2 89 1.2 NNE 7 9 4 5 1012.2 1011.9 29.8
27/06:00pm 19.4 20.1 17.0 86 1.5 ENE 9 13 5 7 1012.0 1011.7 29.6
27/05:30pm 19.2 19.0 16.8 86 1.5 SSE 13 17 7 9 1011.9 1011.6 29.6
27/05:00pm 19.4 19.1 17.4 88 1.2 ESE 15 22 8 12 1012.4 1012.1 29.6
27/04:30pm 19.6 19.1 17.7 89 1.2 SE 17 24 9 13 1012.4 1012.1 29.6
27/04:00pm 19.6 19.1 17.9 90 1.0 SE 17 22 9 12 1012.4 1012.1 29.6
27/03:30pm 18.9 18.7 17.6 92 0.8 SE 15 24 8 13 1012.7 1012.4 29.6
27/03:00pm 18.8 18.7 17.8 94 0.6 SSE 15 20 8 11 1012.8 1012.5 29.6
27/02:30pm 18.8 19.1 18.0 95 0.5 SSE 13 17 7 9 1013.1 1012.8 29.6
27/02:00pm 18.6 17.7 17.8 95 0.5 SE 19 26 10 14 1013.2 1012.9 29.6
27/01:30pm 18.4 17.9 17.9 97 0.3 SSE 17 24 9 13 1013.4 1013.1 29.4
27/01:26pm 18.2 17.2 17.6 96 0.4 SSE 19 26 10 14 1013.4 1013.1 29.0
27/01:00pm 18.1 18.2 17.5 96 0.4 SSE 13 22 7 12 1013.6 1013.3 25.2
27/12:30pm 18.2 18.4 17.7 97 0.3 SSW 13 17 7 9 1013.9 1013.6 18.4
27/12:03pm 18.2 19.1 17.6 96 0.4 S 9 11 5 6 1014.2 1013.9 13.2
27/12:00pm 18.2 19.1 17.6 96 0.4 S 9 11 5 6 1014.2 1013.9 12.8
27/11:48am 18.2 18.4 17.6 96 0.4 SE 13 19 7 10 1014.2 1013.9 11.8
27/11:38am 18.3 18.1 17.7 96 0.4 SE 15 20 8 11 1014.1 1013.8 11.4
27/11:30am 18.2 18.3 17.4 95 0.5 ESE 13 20 7 11 1014.0 1013.7 11.0
27/11:05am 18.3 17.8 17.7 96 0.4 SE 17 22 9 12 1014.0 1013.7 10.4
27/11:03am 18.3 17.8 17.7 96 0.4 SE 17 22 9 12 1014.0 1013.7 10.4
27/11:00am 18.3 17.8 17.7 96 0.4 SE 17 24 9 13 1014.0 1013.7 10.2
27/10:45am 18.4 17.8 17.6 95 0.5 SE 17 22 9 12 1014.0 1013.7 8.6
27/10:30am 18.4 17.4 17.6 95 0.5 ESE 19 28 10 15 1013.9 1013.6 6.8
27/10:13am 18.6 18.9 17.9 96 0.4 E 13 20 7 11 1013.8 1013.5 6.0
27/10:12am 18.5 18.8 17.8 96 0.4 E 13 20 7 11 1013.8 1013.5 6.0
27/10:00am 18.7 19.8 17.9 95 0.5 E 9 13 5 7 1013.8 1013.5 4.6
27/09:57am 18.7 19.8 17.9 95 0.5 ENE 9 15 5 8 1013.8 1013.5 4.0
27/09:30am 18.6 19.2 17.6 94 0.6 SSE 11 19 6 10 1013.5 1013.2 2.2
27/09:00am 18.7 19.7 17.7 94 0.6 SE 9 15 5 8 1013.5 1013.2 11.4
27/08:30am 18.5 18.6 17.5 94 0.6 SSE 13 20 7 11 1013.1 1012.8 10.6
27/08:00am 18.2 18.8 17.6 96 0.4 S 11 15 6 8 1013.1 1012.8 10.6
27/07:30am 17.8 17.3 17.0 95 0.5 S 15 20 8 11 1013.1 1012.8 10.6
27/07:00am 17.8 17.0 17.0 95 0.5 SSE 17 22 9 12 1012.8 1012.5 10.2
27/06:30am 17.8 16.6 17.0 95 0.5 SSE 19 26 10 14 1012.5 1012.2 9.6
27/06:00am 18.2 17.5 17.4 95 0.5 SSE 17 22 9 12 1012.2 1011.9 8.8
27/05:30am 18.2 17.9 17.4 95 0.5 SSE 15 19 8 10 1012.2 1011.9 8.8
27/05:00am 18.3 18.5 17.7 96 0.4 SSE 13 17 7 9 1012.3 1012.0 8.8
27/04:38am 18.2 18.0 17.6 96 0.4 SSE 15 22 8 12 1012.3 1012.0 8.8
27/04:30am 18.4 18.3 17.8 96 0.4 SSE 15 20 8 11 1012.4 1012.1 8.6
27/04:23am 18.3 18.5 17.7 96 0.4 SSE 13 17 7 9 1012.5 1012.2 8.6
27/04:00am 18.4 19.1 17.9 97 0.3 SE 11 13 6 7 1012.8 1012.5 8.6
27/03:41am 18.5 18.8 18.0 97 0.3 SE 13 17 7 9 1012.9 1012.6 8.2
27/03:30am 18.5 18.8 18.0 97 0.3 SE 13 17 7 9 1013.0 1012.7 7.6
27/03:00am 18.4 18.7 17.8 96 0.4 ESE 13 15 7 8 1013.0 1012.7 6.2
27/02:46am 18.5 19.1 17.8 96 0.4 ESE 11 15 6 8 1013.1 1012.8 4.0
27/02:30am 18.3 18.5 17.7 96 0.4 SSE 13 19 7 10 1013.1 1012.8 3.4
27/02:00am 18.3 18.0 17.3 94 0.6 SSE 15 20 8 11 1013.2 1012.9 1.0
27/01:30am 18.2 18.2 17.2 94 0.6 SSE 13 17 7 9 1013.3 1013.0 0.8
27/01:00am 18.0 18.0 17.2 95 0.5 S 13 19 7 10 1013.6 1013.3 0.8
27/12:30am 18.0 19.1 17.0 94 0.6 SSE 7 11 4 6 1014.2 1013.9 0.8
27/12:00am 18.3 19.6 17.0 92 0.8 SW 6 11 3 6 1014.5 1014.1 0.2
 
Date/Time
EDT
Tmp

°C
App
Tmp
°C
Dew
Point
°C
Rel
Hum
%
Delta-T

°C
Wind Press
QNH
hPa
Press
MSL
hPa
Rain
since
9 am
mm
Dir
 
Spd
km/h
Gust
km/h
Spd
kts
Gust
kts
26/11:30pm 18.3 18.6 17.1 93 0.7 S 11 20 6 11 1014.6 1014.2 0.2
26/11:00pm 18.2 18.6 17.2 94 0.6 S 11 17 6 9 1014.9 1014.5 0.2
26/10:30pm 18.1 18.9 17.3 95 0.5 SSE 9 17 5 9 1015.2 1014.9 0.2
26/10:00pm 17.8 18.9 17.0 95 0.5 S 7 11 4 6 1015.2 1014.9 0.2
26/09:30pm 17.6 18.2 16.8 95 0.5 SSW 9 13 5 7 1015.4 1015.1 0.2

Latest Capital City Observations: Canberra | Sydney | Melbourne | Brisbane | Adelaide | Perth | Hobart | Darwin

Other Formats:

Comma delimited format used in spreadsheet applications
http://www.bom.gov.au/fwo/IDN60901/IDN60901.95761.axf

JavaScript Object Notation format (JSON) in row-major order
http://www.bom.gov.au/fwo/IDN60901/IDN60901.95761.json